sensor_id;sensor_type;location;lat;lon;timestamp;temperature;humidity
34985;DHT22;21190;58.750;17.004;2023-08-06T00:01:47;14.30;99.90
34985;DHT22;21190;58.750;17.004;2023-08-06T00:04:14;14.30;99.90
34985;DHT22;21190;58.750;17.004;2023-08-06T00:06:41;14.30;99.90
34985;DHT22;21190;58.750;17.004;2023-08-06T00:09:08;14.30;99.90
34985;DHT22;21190;58.750;17.004;2023-08-06T00:11:35;14.30;99.90
34985;DHT22;21190;58.750;17.004;2023-08-06T00:14:02;14.20;99.90
34985;DHT22;21190;58.750;17.004;2023-08-06T00:16:29;14.20;99.90
34985;DHT22;21190;58.750;17.004;2023-08-06T00:18:56;14.10;99.90
34985;DHT22;21190;58.750;17.004;2023-08-06T00:21:23;14.10;99.90
34985;DHT22;21190;58.750;17.004;2023-08-06T00:23:49;14.00;99.90
34985;DHT22;21190;58.750;17.004;2023-08-06T00:26:16;14.10;99.90
34985;DHT22;21190;58.750;17.004;2023-08-06T00:28:43;14.00;99.90
34985;DHT22;21190;58.750;17.004;2023-08-06T00:31:10;14.00;99.90
34985;DHT22;21190;58.750;17.004;2023-08-06T00:33:37;13.90;99.90
34985;DHT22;21190;58.750;17.004;2023-08-06T00:36:04;13.90;99.90
34985;DHT22;21190;58.750;17.004;2023-08-06T00:38:31;13.90;99.90
34985;DHT22;21190;58.750;17.004;2023-08-06T00:40:58;13.90;99.90
34985;DHT22;21190;58.750;17.004;2023-08-06T00:43:25;13.90;99.90
34985;DHT22;21190;58.750;17.004;2023-08-06T00:45:52;13.80;99.90
34985;DHT22;21190;58.750;17.004;2023-08-06T00:48:19;13.80;99.90
34985;DHT22;21190;58.750;17.004;2023-08-06T00:50:47;13.70;99.90
34985;DHT22;21190;58.750;17.004;2023-08-06T00:53:14;13.70;99.90
34985;DHT22;21190;58.750;17.004;2023-08-06T00:55:43;13.60;99.90
34985;DHT22;21190;58.750;17.004;2023-08-06T00:58:12;13.50;99.90
34985;DHT22;21190;58.750;17.004;2023-08-06T01:00:41;13.50;99.90
34985;DHT22;21190;58.750;17.004;2023-08-06T01:03:09;13.40;99.90
34985;DHT22;21190;58.750;17.004;2023-08-06T01:05:36;13.40;99.90
34985;DHT22;21190;58.750;17.004;2023-08-06T01:14:06;13.20;99.90
34985;DHT22;21190;58.750;17.004;2023-08-06T01:16:35;13.20;99.90
34985;DHT22;21190;58.750;17.004;2023-08-06T01:19:03;13.20;99.90
34985;DHT22;21190;58.750;17.004;2023-08-06T01:21:30;13.20;99.90
34985;DHT22;21190;58.750;17.004;2023-08-06T01:23:57;13.20;99.90
34985;DHT22;21190;58.750;17.004;2023-08-06T01:26:32;13.20;99.90
34985;DHT22;21190;58.750;17.004;2023-08-06T01:31:43;13.10;99.90
34985;DHT22;21190;58.750;17.004;2023-08-06T01:34:16;13.10;99.90
34985;DHT22;21190;58.750;17.004;2023-08-06T01:36:44;13.20;99.90
34985;DHT22;21190;58.750;17.004;2023-08-06T01:39:11;13.20;99.90
34985;DHT22;21190;58.750;17.004;2023-08-06T01:41:38;13.20;99.90
34985;DHT22;21190;58.750;17.004;2023-08-06T01:44:05;13.20;99.90
34985;DHT22;21190;58.750;17.004;2023-08-06T01:46:32;13.20;99.90
34985;DHT22;21190;58.750;17.004;2023-08-06T01:48:59;13.20;99.90
34985;DHT22;21190;58.750;17.004;2023-08-06T01:51:26;13.20;99.90
34985;DHT22;21190;58.750;17.004;2023-08-06T01:53:53;13.10;99.90
34985;DHT22;21190;58.750;17.004;2023-08-06T01:56:20;13.10;99.90
34985;DHT22;21190;58.750;17.004;2023-08-06T01:58:47;13.10;99.90
34985;DHT22;21190;58.750;17.004;2023-08-06T02:01:14;13.10;99.90
34985;DHT22;21190;58.750;17.004;2023-08-06T02:03:41;13.10;99.90
34985;DHT22;21190;58.750;17.004;2023-08-06T02:06:08;13.10;99.90
34985;DHT22;21190;58.750;17.004;2023-08-06T02:08:35;13.10;99.90
34985;DHT22;21190;58.750;17.004;2023-08-06T02:11:02;13.00;99.90
34985;DHT22;21190;58.750;17.004;2023-08-06T02:13:29;13.00;99.90
34985;DHT22;21190;58.750;17.004;2023-08-06T02:15:56;13.00;99.90
34985;DHT22;21190;58.750;17.004;2023-08-06T02:18:23;13.00;99.90
34985;DHT22;21190;58.750;17.004;2023-08-06T02:20:57;13.10;99.90
34985;DHT22;21190;58.750;17.004;2023-08-06T02:23:26;13.00;99.90
34985;DHT22;21190;58.750;17.004;2023-08-06T02:26:00;13.00;99.90
34985;DHT22;21190;58.750;17.004;2023-08-06T02:28:27;13.00;99.90
34985;DHT22;21190;58.750;17.004;2023-08-06T02:30:54;13.00;99.90
34985;DHT22;21190;58.750;17.004;2023-08-06T02:33:21;12.90;99.90
34985;DHT22;21190;58.750;17.004;2023-08-06T02:35:54;12.90;99.90
34985;DHT22;21190;58.750;17.004;2023-08-06T02:38:25;12.80;99.90
34985;DHT22;21190;58.750;17.004;2023-08-06T02:40:51;12.80;99.90
34985;DHT22;21190;58.750;17.004;2023-08-06T02:43:18;12.70;99.90
34985;DHT22;21190;58.750;17.004;2023-08-06T02:45:46;12.70;99.90
34985;DHT22;21190;58.750;17.004;2023-08-06T02:48:13;12.60;99.90
34985;DHT22;21190;58.750;17.004;2023-08-06T02:50:41;12.60;99.90
34985;DHT22;21190;58.750;17.004;2023-08-06T02:53:08;12.50;99.90
34985;DHT22;21190;58.750;17.004;2023-08-06T02:55:36;12.50;99.90
34985;DHT22;21190;58.750;17.004;2023-08-06T02:58:03;12.40;99.90
34985;DHT22;21190;58.750;17.004;2023-08-06T03:00:30;12.40;99.90
34985;DHT22;21190;58.750;17.004;2023-08-06T03:02:57;12.30;99.90
34985;DHT22;21190;58.750;17.004;2023-08-06T03:05:24;12.20;99.90
34985;DHT22;21190;58.750;17.004;2023-08-06T03:07:51;12.10;99.90
34985;DHT22;21190;58.750;17.004;2023-08-06T03:10:18;12.00;99.90
34985;DHT22;21190;58.750;17.004;2023-08-06T03:12:45;11.90;99.90
34985;DHT22;21190;58.750;17.004;2023-08-06T03:15:12;11.90;99.90
34985;DHT22;21190;58.750;17.004;2023-08-06T03:17:39;11.90;99.90
34985;DHT22;21190;58.750;17.004;2023-08-06T03:20:07;11.90;99.90
34985;DHT22;21190;58.750;17.004;2023-08-06T03:22:34;11.90;99.90
34985;DHT22;21190;58.750;17.004;2023-08-06T03:25:01;11.80;99.90
34985;DHT22;21190;58.750;17.004;2023-08-06T03:27:28;11.80;99.90
34985;DHT22;21190;58.750;17.004;2023-08-06T03:29:55;11.90;99.90
34985;DHT22;21190;58.750;17.004;2023-08-06T03:32:22;11.90;99.90
34985;DHT22;21190;58.750;17.004;2023-08-06T03:34:49;11.90;99.90
34985;DHT22;21190;58.750;17.004;2023-08-06T03:37:16;12.00;99.90
34985;DHT22;21190;58.750;17.004;2023-08-06T03:39:43;12.00;99.90
34985;DHT22;21190;58.750;17.004;2023-08-06T03:42:09;12.00;99.90
34985;DHT22;21190;58.750;17.004;2023-08-06T03:44:36;12.10;99.90
34985;DHT22;21190;58.750;17.004;2023-08-06T03:47:04;12.20;99.90
34985;DHT22;21190;58.750;17.004;2023-08-06T03:49:31;12.20;99.90
34985;DHT22;21190;58.750;17.004;2023-08-06T03:51:58;12.30;99.90
34985;DHT22;21190;58.750;17.004;2023-08-06T03:54:25;12.30;99.90
34985;DHT22;21190;58.750;17.004;2023-08-06T03:56:52;12.30;99.90
34985;DHT22;21190;58.750;17.004;2023-08-06T03:59:19;12.30;99.90
34985;DHT22;21190;58.750;17.004;2023-08-06T04:01:47;12.30;99.90
34985;DHT22;21190;58.750;17.004;2023-08-06T04:04:14;12.30;99.90
34985;DHT22;21190;58.750;17.004;2023-08-06T04:06:41;12.40;99.90
34985;DHT22;21190;58.750;17.004;2023-08-06T04:09:08;12.40;99.90
34985;DHT22;21190;58.750;17.004;2023-08-06T04:11:35;12.50;99.90
34985;DHT22;21190;58.750;17.004;2023-08-06T04:14:02;12.60;99.90
34985;DHT22;21190;58.750;17.004;2023-08-06T04:16:29;12.60;99.90
34985;DHT22;21190;58.750;17.004;2023-08-06T04:18:56;12.70;99.90
34985;DHT22;21190;58.750;17.004;2023-08-06T04:21:23;12.80;99.90
34985;DHT22;21190;58.750;17.004;2023-08-06T04:23:50;12.80;99.90
34985;DHT22;21190;58.750;17.004;2023-08-06T04:26:16;12.90;99.90
34985;DHT22;21190;58.750;17.004;2023-08-06T04:28:44;12.90;99.90
34985;DHT22;21190;58.750;17.004;2023-08-06T04:31:10;13.00;99.90
34985;DHT22;21190;58.750;17.004;2023-08-06T04:33:38;13.00;99.90
34985;DHT22;21190;58.750;17.004;2023-08-06T04:36:04;13.00;99.90
34985;DHT22;21190;58.750;17.004;2023-08-06T04:38:32;13.10;99.90
34985;DHT22;21190;58.750;17.004;2023-08-06T04:40:58;13.10;99.90
34985;DHT22;21190;58.750;17.004;2023-08-06T04:43:25;13.10;99.90
34985;DHT22;21190;58.750;17.004;2023-08-06T04:45:54;13.20;99.90
34985;DHT22;21190;58.750;17.004;2023-08-06T04:48:22;13.20;99.90
34985;DHT22;21190;58.750;17.004;2023-08-06T04:50:50;13.20;99.90
34985;DHT22;21190;58.750;17.004;2023-08-06T04:53:17;13.30;99.90
34985;DHT22;21190;58.750;17.004;2023-08-06T04:55:44;13.40;99.90
34985;DHT22;21190;58.750;17.004;2023-08-06T04:58:12;13.50;99.90
34985;DHT22;21190;58.750;17.004;2023-08-06T05:00:40;13.50;99.90
34985;DHT22;21190;58.750;17.004;2023-08-06T05:03:07;13.60;99.90
34985;DHT22;21190;58.750;17.004;2023-08-06T05:05:34;13.70;99.90
34985;DHT22;21190;58.750;17.004;2023-08-06T05:08:01;13.70;99.90
34985;DHT22;21190;58.750;17.004;2023-08-06T05:10:28;13.80;99.90
34985;DHT22;21190;58.750;17.004;2023-08-06T05:12:55;13.90;99.90
34985;DHT22;21190;58.750;17.004;2023-08-06T05:15:22;14.00;99.90
34985;DHT22;21190;58.750;17.004;2023-08-06T05:17:49;14.10;99.90
34985;DHT22;21190;58.750;17.004;2023-08-06T05:20:16;14.20;99.90
34985;DHT22;21190;58.750;17.004;2023-08-06T05:22:43;14.40;99.90
34985;DHT22;21190;58.750;17.004;2023-08-06T05:25:13;14.50;99.90
34985;DHT22;21190;58.750;17.004;2023-08-06T05:27:41;14.60;99.90
34985;DHT22;21190;58.750;17.004;2023-08-06T05:30:08;14.70;99.90
34985;DHT22;21190;58.750;17.004;2023-08-06T05:32:36;14.80;99.90
34985;DHT22;21190;58.750;17.004;2023-08-06T05:35:03;14.80;99.90
34985;DHT22;21190;58.750;17.004;2023-08-06T05:37:30;14.90;99.90
34985;DHT22;21190;58.750;17.004;2023-08-06T05:39:57;15.00;99.90
34985;DHT22;21190;58.750;17.004;2023-08-06T05:42:24;15.00;99.90
34985;DHT22;21190;58.750;17.004;2023-08-06T05:44:51;15.10;99.90
34985;DHT22;21190;58.750;17.004;2023-08-06T05:47:18;15.20;99.90
34985;DHT22;21190;58.750;17.004;2023-08-06T05:49:46;15.20;99.90
34985;DHT22;21190;58.750;17.004;2023-08-06T05:52:13;15.30;99.90
34985;DHT22;21190;58.750;17.004;2023-08-06T05:54:40;15.40;99.90
34985;DHT22;21190;58.750;17.004;2023-08-06T05:57:07;15.40;99.90
34985;DHT22;21190;58.750;17.004;2023-08-06T05:59:34;15.40;99.90
34985;DHT22;21190;58.750;17.004;2023-08-06T06:02:01;15.50;99.90
34985;DHT22;21190;58.750;17.004;2023-08-06T06:04:28;15.50;99.90
34985;DHT22;21190;58.750;17.004;2023-08-06T06:06:55;15.60;99.90
34985;DHT22;21190;58.750;17.004;2023-08-06T06:09:22;15.70;99.90
34985;DHT22;21190;58.750;17.004;2023-08-06T06:11:49;15.70;99.90
34985;DHT22;21190;58.750;17.004;2023-08-06T06:14:18;15.80;99.90
34985;DHT22;21190;58.750;17.004;2023-08-06T06:16:45;15.90;99.90
34985;DHT22;21190;58.750;17.004;2023-08-06T06:19:12;15.90;99.90
34985;DHT22;21190;58.750;17.004;2023-08-06T06:21:40;16.00;99.90
34985;DHT22;21190;58.750;17.004;2023-08-06T06:24:07;16.00;99.90
34985;DHT22;21190;58.750;17.004;2023-08-06T06:26:34;16.10;99.90
34985;DHT22;21190;58.750;17.004;2023-08-06T06:29:01;16.10;99.90
34985;DHT22;21190;58.750;17.004;2023-08-06T06:31:29;16.10;99.90
34985;DHT22;21190;58.750;17.004;2023-08-06T06:33:56;16.10;99.90
34985;DHT22;21190;58.750;17.004;2023-08-06T06:36:23;16.20;99.90
34985;DHT22;21190;58.750;17.004;2023-08-06T06:38:50;16.30;99.90
34985;DHT22;21190;58.750;17.004;2023-08-06T06:41:17;16.30;99.90
34985;DHT22;21190;58.750;17.004;2023-08-06T06:43:44;16.40;99.90
34985;DHT22;21190;58.750;17.004;2023-08-06T06:46:11;16.50;99.90
34985;DHT22;21190;58.750;17.004;2023-08-06T06:48:38;16.50;99.90
34985;DHT22;21190;58.750;17.004;2023-08-06T06:51:05;16.60;99.90
34985;DHT22;21190;58.750;17.004;2023-08-06T06:53:32;16.60;99.90
34985;DHT22;21190;58.750;17.004;2023-08-06T06:56:04;16.60;99.90
34985;DHT22;21190;58.750;17.004;2023-08-06T06:58:32;16.70;99.90
34985;DHT22;21190;58.750;17.004;2023-08-06T07:00:59;16.80;99.90
34985;DHT22;21190;58.750;17.004;2023-08-06T07:03:26;16.80;99.90
34985;DHT22;21190;58.750;17.004;2023-08-06T07:05:57;16.90;99.90
34985;DHT22;21190;58.750;17.004;2023-08-06T07:08:25;16.90;99.90
34985;DHT22;21190;58.750;17.004;2023-08-06T07:11:02;16.90;99.90
34985;DHT22;21190;58.750;17.004;2023-08-06T07:13:30;17.00;99.90
34985;DHT22;21190;58.750;17.004;2023-08-06T07:15:57;17.00;99.90
34985;DHT22;21190;58.750;17.004;2023-08-06T07:18:24;17.00;99.90
34985;DHT22;21190;58.750;17.004;2023-08-06T07:20:52;17.00;99.90
34985;DHT22;21190;58.750;17.004;2023-08-06T07:23:21;17.10;99.90
34985;DHT22;21190;58.750;17.004;2023-08-06T07:25:48;17.10;99.90
34985;DHT22;21190;58.750;17.004;2023-08-06T07:28:16;17.20;99.90
34985;DHT22;21190;58.750;17.004;2023-08-06T07:30:44;17.30;99.90
34985;DHT22;21190;58.750;17.004;2023-08-06T07:33:11;17.30;99.90
34985;DHT22;21190;58.750;17.004;2023-08-06T07:35:39;17.30;99.90
34985;DHT22;21190;58.750;17.004;2023-08-06T07:38:06;17.30;99.90
34985;DHT22;21190;58.750;17.004;2023-08-06T07:40:35;17.40;99.90
34985;DHT22;21190;58.750;17.004;2023-08-06T07:43:03;17.60;99.90
34985;DHT22;21190;58.750;17.004;2023-08-06T07:45:36;17.50;99.90
34985;DHT22;21190;58.750;17.004;2023-08-06T07:48:03;17.70;99.90
34985;DHT22;21190;58.750;17.004;2023-08-06T07:50:31;17.70;99.90
34985;DHT22;21190;58.750;17.004;2023-08-06T07:52:58;17.70;99.90
34985;DHT22;21190;58.750;17.004;2023-08-06T07:55:25;17.80;99.90
34985;DHT22;21190;58.750;17.004;2023-08-06T07:57:53;17.80;99.90
34985;DHT22;21190;58.750;17.004;2023-08-06T08:00:20;17.80;99.90
34985;DHT22;21190;58.750;17.004;2023-08-06T08:02:47;17.70;99.90
34985;DHT22;21190;58.750;17.004;2023-08-06T08:05:14;17.80;99.90
34985;DHT22;21190;58.750;17.004;2023-08-06T08:07:41;17.90;99.90
34985;DHT22;21190;58.750;17.004;2023-08-06T08:10:08;17.90;99.90
34985;DHT22;21190;58.750;17.004;2023-08-06T08:12:35;18.00;99.90
34985;DHT22;21190;58.750;17.004;2023-08-06T08:15:03;18.00;99.90
34985;DHT22;21190;58.750;17.004;2023-08-06T08:17:30;18.00;99.90
34985;DHT22;21190;58.750;17.004;2023-08-06T08:19:57;18.10;99.90
34985;DHT22;21190;58.750;17.004;2023-08-06T08:22:24;18.10;99.90
34985;DHT22;21190;58.750;17.004;2023-08-06T08:24:51;18.10;99.90
34985;DHT22;21190;58.750;17.004;2023-08-06T08:27:17;18.20;99.90
34985;DHT22;21190;58.750;17.004;2023-08-06T08:29:44;18.20;99.90
34985;DHT22;21190;58.750;17.004;2023-08-06T08:32:11;18.30;99.90
34985;DHT22;21190;58.750;17.004;2023-08-06T08:34:38;18.30;99.90
34985;DHT22;21190;58.750;17.004;2023-08-06T08:37:05;18.30;99.90
34985;DHT22;21190;58.750;17.004;2023-08-06T08:39:32;18.40;99.90
34985;DHT22;21190;58.750;17.004;2023-08-06T08:41:59;18.40;99.90
34985;DHT22;21190;58.750;17.004;2023-08-06T08:44:28;18.40;99.90
34985;DHT22;21190;58.750;17.004;2023-08-06T08:46:56;18.40;99.90
34985;DHT22;21190;58.750;17.004;2023-08-06T08:49:24;18.40;99.90
34985;DHT22;21190;58.750;17.004;2023-08-06T08:51:53;18.50;99.90
34985;DHT22;21190;58.750;17.004;2023-08-06T08:54:23;18.50;99.90
34985;DHT22;21190;58.750;17.004;2023-08-06T08:56:51;18.60;99.90
34985;DHT22;21190;58.750;17.004;2023-08-06T08:59:17;18.60;99.90
34985;DHT22;21190;58.750;17.004;2023-08-06T09:01:46;18.60;99.90
34985;DHT22;21190;58.750;17.004;2023-08-06T09:04:17;18.70;99.90
34985;DHT22;21190;58.750;17.004;2023-08-06T09:06:47;18.70;99.90
34985;DHT22;21190;58.750;17.004;2023-08-06T09:09:35;18.70;99.90
34985;DHT22;21190;58.750;17.004;2023-08-06T09:12:13;18.70;99.90
34985;DHT22;21190;58.750;17.004;2023-08-06T09:14:41;18.70;99.90
34985;DHT22;21190;58.750;17.004;2023-08-06T09:17:09;18.80;99.90
34985;DHT22;21190;58.750;17.004;2023-08-06T09:19:42;18.70;99.90
34985;DHT22;21190;58.750;17.004;2023-08-06T09:22:14;18.70;99.90
34985;DHT22;21190;58.750;17.004;2023-08-06T09:24:41;18.60;99.90
34985;DHT22;21190;58.750;17.004;2023-08-06T09:27:12;18.60;99.90
34985;DHT22;21190;58.750;17.004;2023-08-06T09:29:44;18.60;99.90
34985;DHT22;21190;58.750;17.004;2023-08-06T09:32:12;18.60;99.90
34985;DHT22;21190;58.750;17.004;2023-08-06T09:34:41;18.60;99.90
34985;DHT22;21190;58.750;17.004;2023-08-06T09:37:09;18.60;99.90
34985;DHT22;21190;58.750;17.004;2023-08-06T09:39:39;18.60;99.90
34985;DHT22;21190;58.750;17.004;2023-08-06T09:42:07;18.60;99.90
34985;DHT22;21190;58.750;17.004;2023-08-06T09:44:34;18.60;99.90
34985;DHT22;21190;58.750;17.004;2023-08-06T09:47:03;18.60;99.90
34985;DHT22;21190;58.750;17.004;2023-08-06T09:52:00;18.60;99.90
34985;DHT22;21190;58.750;17.004;2023-08-06T09:54:28;18.50;99.90
34985;DHT22;21190;58.750;17.004;2023-08-06T09:56:57;18.50;99.90
34985;DHT22;21190;58.750;17.004;2023-08-06T09:59:24;18.50;99.90
34985;DHT22;21190;58.750;17.004;2023-08-06T10:01:54;18.50;99.90
34985;DHT22;21190;58.750;17.004;2023-08-06T10:04:23;18.50;99.90
34985;DHT22;21190;58.750;17.004;2023-08-06T10:06:56;18.40;99.90
34985;DHT22;21190;58.750;17.004;2023-08-06T10:09:24;18.40;99.90
34985;DHT22;21190;58.750;17.004;2023-08-06T10:11:51;18.50;99.90
34985;DHT22;21190;58.750;17.004;2023-08-06T10:14:33;18.50;99.90
34985;DHT22;21190;58.750;17.004;2023-08-06T10:17:02;18.40;99.90
34985;DHT22;21190;58.750;17.004;2023-08-06T10:19:31;18.40;99.90
34985;DHT22;21190;58.750;17.004;2023-08-06T10:22:12;18.40;99.90
34985;DHT22;21190;58.750;17.004;2023-08-06T10:24:58;18.30;99.90
34985;DHT22;21190;58.750;17.004;2023-08-06T10:27:36;18.20;99.90
34985;DHT22;21190;58.750;17.004;2023-08-06T10:30:34;18.20;99.90
34985;DHT22;21190;58.750;17.004;2023-08-06T10:33:07;18.20;99.90
34985;DHT22;21190;58.750;17.004;2023-08-06T10:38:17;18.10;99.90
34985;DHT22;21190;58.750;17.004;2023-08-06T10:41:14;18.10;99.90
34985;DHT22;21190;58.750;17.004;2023-08-06T10:43:41;18.10;99.90
34985;DHT22;21190;58.750;17.004;2023-08-06T10:46:11;18.10;99.90
34985;DHT22;21190;58.750;17.004;2023-08-06T10:48:45;18.00;99.90
34985;DHT22;21190;58.750;17.004;2023-08-06T10:51:13;18.00;99.90
34985;DHT22;21190;58.750;17.004;2023-08-06T10:53:46;18.00;99.90
34985;DHT22;21190;58.750;17.004;2023-08-06T10:58:43;18.00;99.90
34985;DHT22;21190;58.750;17.004;2023-08-06T11:01:11;17.90;99.90
34985;DHT22;21190;58.750;17.004;2023-08-06T11:03:39;17.90;99.90
34985;DHT22;21190;58.750;17.004;2023-08-06T11:06:07;17.90;99.90
34985;DHT22;21190;58.750;17.004;2023-08-06T11:08:40;17.80;99.90
34985;DHT22;21190;58.750;17.004;2023-08-06T11:11:14;17.80;99.90
34985;DHT22;21190;58.750;17.004;2023-08-06T11:13:46;17.70;99.90
34985;DHT22;21190;58.750;17.004;2023-08-06T11:16:22;17.70;99.90
34985;DHT22;21190;58.750;17.004;2023-08-06T11:18:51;17.60;99.90
34985;DHT22;21190;58.750;17.004;2023-08-06T11:21:21;17.60;99.90
34985;DHT22;21190;58.750;17.004;2023-08-06T11:23:48;17.60;99.90
34985;DHT22;21190;58.750;17.004;2023-08-06T11:26:19;17.60;99.90
34985;DHT22;21190;58.750;17.004;2023-08-06T11:28:47;17.50;99.90
34985;DHT22;21190;58.750;17.004;2023-08-06T11:31:23;17.50;99.90
34985;DHT22;21190;58.750;17.004;2023-08-06T11:33:52;17.40;99.90
34985;DHT22;21190;58.750;17.004;2023-08-06T11:36:32;17.30;99.90
34985;DHT22;21190;58.750;17.004;2023-08-06T11:39:00;17.20;99.90
34985;DHT22;21190;58.750;17.004;2023-08-06T11:41:30;17.10;99.90
34985;DHT22;21190;58.750;17.004;2023-08-06T11:43:58;17.00;99.90
34985;DHT22;21190;58.750;17.004;2023-08-06T11:46:25;16.90;99.90
34985;DHT22;21190;58.750;17.004;2023-08-06T11:48:56;16.80;99.90
34985;DHT22;21190;58.750;17.004;2023-08-06T11:51:25;16.90;99.90
34985;DHT22;21190;58.750;17.004;2023-08-06T11:53:57;16.90;99.90
34985;DHT22;21190;58.750;17.004;2023-08-06T11:56:27;16.90;99.90
34985;DHT22;21190;58.750;17.004;2023-08-06T11:58:55;16.90;99.90
34985;DHT22;21190;58.750;17.004;2023-08-06T12:01:22;16.90;99.90
34985;DHT22;21190;58.750;17.004;2023-08-06T12:03:49;16.80;99.90
34985;DHT22;21190;58.750;17.004;2023-08-06T12:06:16;16.80;99.90
34985;DHT22;21190;58.750;17.004;2023-08-06T12:08:43;16.70;99.90
34985;DHT22;21190;58.750;17.004;2023-08-06T12:11:11;16.70;99.90
34985;DHT22;21190;58.750;17.004;2023-08-06T12:13:38;16.60;99.90
34985;DHT22;21190;58.750;17.004;2023-08-06T12:16:05;16.60;99.90
34985;DHT22;21190;58.750;17.004;2023-08-06T12:18:31;16.50;99.90
34985;DHT22;21190;58.750;17.004;2023-08-06T12:20:59;16.40;99.90
34985;DHT22;21190;58.750;17.004;2023-08-06T12:23:25;16.40;99.90
34985;DHT22;21190;58.750;17.004;2023-08-06T12:25:52;16.30;99.90
34985;DHT22;21190;58.750;17.004;2023-08-06T12:28:19;16.20;99.90
34985;DHT22;21190;58.750;17.004;2023-08-06T12:30:49;16.20;99.90
34985;DHT22;21190;58.750;17.004;2023-08-06T12:33:18;16.20;99.90
34985;DHT22;21190;58.750;17.004;2023-08-06T12:35:45;16.10;99.90
34985;DHT22;21190;58.750;17.004;2023-08-06T12:38:12;16.10;99.90
34985;DHT22;21190;58.750;17.004;2023-08-06T12:40:40;16.10;99.90
34985;DHT22;21190;58.750;17.004;2023-08-06T12:43:09;16.00;99.90
34985;DHT22;21190;58.750;17.004;2023-08-06T12:45:36;15.90;99.90
34985;DHT22;21190;58.750;17.004;2023-08-06T12:48:04;15.90;99.90
34985;DHT22;21190;58.750;17.004;2023-08-06T12:50:31;15.90;99.90
34985;DHT22;21190;58.750;17.004;2023-08-06T12:53:00;15.90;99.90
34985;DHT22;21190;58.750;17.004;2023-08-06T12:55:27;15.80;99.90
34985;DHT22;21190;58.750;17.004;2023-08-06T12:57:57;15.90;99.90
34985;DHT22;21190;58.750;17.004;2023-08-06T13:00:28;15.80;99.90
34985;DHT22;21190;58.750;17.004;2023-08-06T13:02:55;15.80;99.90
34985;DHT22;21190;58.750;17.004;2023-08-06T13:05:22;15.80;99.90
34985;DHT22;21190;58.750;17.004;2023-08-06T13:07:49;15.80;99.90
34985;DHT22;21190;58.750;17.004;2023-08-06T13:10:16;15.70;99.90
34985;DHT22;21190;58.750;17.004;2023-08-06T13:12:43;15.70;99.90
34985;DHT22;21190;58.750;17.004;2023-08-06T13:15:10;15.80;99.90
34985;DHT22;21190;58.750;17.004;2023-08-06T13:17:37;15.70;99.90
34985;DHT22;21190;58.750;17.004;2023-08-06T13:20:05;15.70;99.90
34985;DHT22;21190;58.750;17.004;2023-08-06T13:22:32;15.70;99.90
34985;DHT22;21190;58.750;17.004;2023-08-06T13:24:59;15.70;99.90
34985;DHT22;21190;58.750;17.004;2023-08-06T13:27:26;15.70;99.90
34985;DHT22;21190;58.750;17.004;2023-08-06T13:29:53;15.70;99.90
34985;DHT22;21190;58.750;17.004;2023-08-06T13:32:20;15.70;99.90
34985;DHT22;21190;58.750;17.004;2023-08-06T13:34:47;15.70;99.90
34985;DHT22;21190;58.750;17.004;2023-08-06T13:37:14;15.60;99.90
34985;DHT22;21190;58.750;17.004;2023-08-06T13:39:41;15.60;99.90
34985;DHT22;21190;58.750;17.004;2023-08-06T13:42:08;15.60;99.90
34985;DHT22;21190;58.750;17.004;2023-08-06T13:44:35;15.60;99.90
34985;DHT22;21190;58.750;17.004;2023-08-06T13:47:03;15.50;99.90
34985;DHT22;21190;58.750;17.004;2023-08-06T13:49:30;15.50;99.90
34985;DHT22;21190;58.750;17.004;2023-08-06T13:51:57;15.60;99.90
34985;DHT22;21190;58.750;17.004;2023-08-06T13:54:41;15.60;99.90
34985;DHT22;21190;58.750;17.004;2023-08-06T13:57:08;15.60;99.90
34985;DHT22;21190;58.750;17.004;2023-08-06T13:59:35;15.60;99.90
34985;DHT22;21190;58.750;17.004;2023-08-06T14:02:02;15.50;99.90
34985;DHT22;21190;58.750;17.004;2023-08-06T14:04:30;15.50;99.90
34985;DHT22;21190;58.750;17.004;2023-08-06T14:06:57;15.50;99.90
34985;DHT22;21190;58.750;17.004;2023-08-06T14:09:23;15.50;99.90
34985;DHT22;21190;58.750;17.004;2023-08-06T14:11:51;15.50;99.90
34985;DHT22;21190;58.750;17.004;2023-08-06T14:14:18;15.50;99.90
34985;DHT22;21190;58.750;17.004;2023-08-06T14:16:45;15.50;99.90
34985;DHT22;21190;58.750;17.004;2023-08-06T14:19:12;15.50;99.90
34985;DHT22;21190;58.750;17.004;2023-08-06T14:21:39;15.50;99.90
34985;DHT22;21190;58.750;17.004;2023-08-06T14:24:06;15.50;99.90
34985;DHT22;21190;58.750;17.004;2023-08-06T14:26:33;15.50;99.90
34985;DHT22;21190;58.750;17.004;2023-08-06T14:29:01;15.50;99.90
34985;DHT22;21190;58.750;17.004;2023-08-06T14:31:28;15.50;99.90
34985;DHT22;21190;58.750;17.004;2023-08-06T14:33:55;15.40;99.90
34985;DHT22;21190;58.750;17.004;2023-08-06T14:36:22;15.40;99.90
34985;DHT22;21190;58.750;17.004;2023-08-06T14:38:49;15.40;99.90
34985;DHT22;21190;58.750;17.004;2023-08-06T14:41:26;15.50;99.90
34985;DHT22;21190;58.750;17.004;2023-08-06T14:43:53;15.50;99.90
34985;DHT22;21190;58.750;17.004;2023-08-06T14:46:21;15.50;99.90
34985;DHT22;21190;58.750;17.004;2023-08-06T14:48:48;15.50;99.90
34985;DHT22;21190;58.750;17.004;2023-08-06T14:51:15;15.50;99.90
34985;DHT22;21190;58.750;17.004;2023-08-06T14:53:42;15.50;99.90
34985;DHT22;21190;58.750;17.004;2023-08-06T14:56:09;15.50;99.90
34985;DHT22;21190;58.750;17.004;2023-08-06T14:58:36;15.60;99.90
34985;DHT22;21190;58.750;17.004;2023-08-06T15:01:03;15.60;99.90
34985;DHT22;21190;58.750;17.004;2023-08-06T15:03:30;15.60;99.90
34985;DHT22;21190;58.750;17.004;2023-08-06T15:05:58;15.60;99.90
34985;DHT22;21190;58.750;17.004;2023-08-06T15:08:25;15.60;99.90
34985;DHT22;21190;58.750;17.004;2023-08-06T15:10:52;15.60;99.90
34985;DHT22;21190;58.750;17.004;2023-08-06T15:13:20;15.60;99.90
34985;DHT22;21190;58.750;17.004;2023-08-06T15:15:48;15.60;99.90
34985;DHT22;21190;58.750;17.004;2023-08-06T15:18:16;15.60;99.90
34985;DHT22;21190;58.750;17.004;2023-08-06T15:20:43;15.60;99.90
34985;DHT22;21190;58.750;17.004;2023-08-06T15:23:10;15.70;99.90
34985;DHT22;21190;58.750;17.004;2023-08-06T15:25:37;15.70;99.90
34985;DHT22;21190;58.750;17.004;2023-08-06T15:28:04;15.70;99.90
34985;DHT22;21190;58.750;17.004;2023-08-06T15:30:32;15.70;99.90
34985;DHT22;21190;58.750;17.004;2023-08-06T15:32:59;15.70;99.90
34985;DHT22;21190;58.750;17.004;2023-08-06T15:35:26;15.70;99.90
34985;DHT22;21190;58.750;17.004;2023-08-06T15:37:53;15.70;99.90